Time;durP1;ratioP1;P1;durP2;ratioP2;P2;SDS_P1;SDS_P2;PMS_P1;PMS_P2;Temp;Humidity;BMP_temperature;BMP_pressure;BME280_temperature;BME280_humidity;BME280_pressure;Samples;Min_cycle;Max_cycle;Signal;HPM_P1;HPM_P2
2021/04/17 00:02:11;;;;;;;2.03;1.05;;;7.80;68.40;;;;;;6131361;23;20053;-90
2021/04/17 00:04:39;;;;;;;2.67;1.35;;;7.90;68.50;;;;;;6106081;23;20002;-89
2021/04/17 00:07:06;;;;;;;3.58;1.42;;;7.90;68.90;;;;;;6106299;23;20002;-90
2021/04/17 00:09:32;;;;;;;2.10;1.33;;;7.90;69.00;;;;;;6105834;23;20033;-88
2021/04/17 00:12:01;;;;;;;2.72;1.23;;;7.80;68.40;;;;;;6105916;23;20006;-89
2021/04/17 00:14:30;;;;;;;2.90;1.42;;;7.80;68.50;;;;;;6106007;23;20053;-89
2021/04/17 00:16:56;;;;;;;2.20;1.33;;;7.80;68.70;;;;;;6130762;23;20005;-87
2021/04/17 00:19:22;;;;;;;2.85;1.30;;;7.80;68.80;;;;;;6105287;23;20010;-87
2021/04/17 00:21:47;;;;;;;1.35;0.88;;;7.80;68.80;;;;;;6105401;23;20412;-88
2021/04/17 00:24:13;;;;;;;2.35;1.42;;;7.80;69.80;;;;;;6130935;23;20006;-88
2021/04/17 00:26:39;;;;;;;2.72;1.48;;;7.70;69.50;;;;;;6130552;23;20013;-90
2021/04/17 00:29:05;;;;;;;3.65;1.08;;;7.70;69.80;;;;;;6105095;23;20358;-89
2021/04/17 00:31:32;;;;;;;2.08;1.40;;;7.70;69.80;;;;;;6106216;23;20010;-90
2021/04/17 00:33:57;;;;;;;1.65;1.10;;;7.70;69.70;;;;;;6106180;23;20365;-89
2021/04/17 00:36:23;;;;;;;2.55;1.40;;;7.70;70.00;;;;;;6130838;23;20002;-89
2021/04/17 00:38:48;;;;;;;3.40;1.55;;;7.60;70.00;;;;;;6105507;23;20478;-90
2021/04/17 00:41:14;;;;;;;3.40;1.15;;;7.60;70.30;;;;;;6105165;23;20002;-90
2021/04/17 00:43:39;;;;;;;3.45;1.20;;;7.50;70.60;;;;;;6105923;23;20009;-88
2021/04/17 00:46:05;;;;;;;5.72;1.45;;;7.50;70.80;;;;;;6105414;23;20016;-90
2021/04/17 00:48:31;;;;;;;4.55;1.33;;;7.50;70.40;;;;;;6105796;23;20016;-88
2021/04/17 00:50:57;;;;;;;6.25;1.30;;;7.50;70.60;;;;;;6106106;23;20078;-89
2021/04/17 00:53:22;;;;;;;3.65;1.15;;;7.50;70.50;;;;;;6105344;23;20002;-89
2021/04/17 00:55:48;;;;;;;4.75;2.05;;;7.40;70.60;;;;;;6105220;23;20010;-88
2021/04/17 00:58:13;;;;;;;4.63;1.63;;;7.40;70.70;;;;;;6106290;23;20029;-89
2021/04/17 01:00:39;;;;;;;3.60;1.30;;;7.40;70.50;;;;;;6105459;23;20002;-89
2021/04/17 01:03:23;;;;;;;2.75;1.23;;;7.40;70.80;;;;;;6132192;23;20025;-90
2021/04/17 01:05:53;;;;;;;2.88;0.85;;;7.40;70.60;;;;;;6106986;23;20084;-89
2021/04/17 01:08:46;;;;;;;2.97;1.10;;;7.40;71.00;;;;;;6105722;23;20037;-88
2021/04/17 01:11:20;;;;;;;2.55;1.50;;;7.30;70.80;;;;;;6131131;23;20030;-89
2021/04/17 01:13:46;;;;;;;2.47;1.13;;;7.30;70.80;;;;;;6130465;23;20013;-89
2021/04/17 01:16:12;;;;;;;3.42;1.20;;;7.30;70.80;;;;;;6106128;23;20002;-90
2021/04/17 01:18:39;;;;;;;1.67;1.20;;;7.40;71.10;;;;;;6105325;23;20078;-89
2021/04/17 01:21:06;;;;;;;1.75;1.25;;;7.40;71.10;;;;;;6105484;23;20006;-89
2021/04/17 01:23:35;;;;;;;3.20;1.48;;;7.40;71.10;;;;;;6105814;23;20013;-89
2021/04/17 01:26:13;;;;;;;1.80;1.20;;;7.40;70.80;;;;;;6104792;23;20010;-89
2021/04/17 01:28:45;;;;;;;4.15;1.25;;;7.40;71.10;;;;;;6130260;23;20101;-88
2021/04/17 01:31:15;;;;;;;2.03;1.20;;;7.40;71.10;;;;;;6104922;23;20006;-88
2021/04/17 01:33:50;;;;;;;2.30;1.30;;;7.40;71.00;;;;;;6104287;23;20339;-88
2021/04/17 01:36:17;;;;;;;2.45;1.35;;;7.40;71.10;;;;;;6105117;23;20002;-89
2021/04/17 01:38:49;;;;;;;1.27;1.02;;;7.40;71.20;;;;;;6104425;23;20013;-88
2021/04/17 01:41:18;;;;;;;2.80;1.10;;;7.40;71.10;;;;;;6130531;23;20353;-89
2021/04/17 01:43:49;;;;;;;1.98;1.13;;;7.40;71.20;;;;;;6104777;23;20010;-89
2021/04/17 01:46:17;;;;;;;2.33;1.33;;;7.40;71.40;;;;;;6105452;23;20013;-90
2021/04/17 01:48:44;;;;;;;3.28;1.35;;;7.40;71.20;;;;;;6105034;23;20010;-88
2021/04/17 01:51:11;;;;;;;1.90;0.88;;;7.40;71.10;;;;;;6104975;23;20081;-88
2021/04/17 01:53:40;;;;;;;2.05;1.20;;;7.40;71.40;;;;;;6105119;23;20006;-88
2021/04/17 01:56:08;;;;;;;2.60;1.40;;;7.40;71.50;;;;;;6130154;23;20073;-89
2021/04/17 01:58:38;;;;;;;2.47;1.10;;;7.40;71.70;;;;;;6106091;23;20002;-90
2021/04/17 02:01:04;;;;;;;3.95;1.17;;;7.40;71.70;;;;;;6132592;23;20082;-88
2021/04/17 02:03:30;;;;;;;1.00;0.90;;;7.40;71.90;;;;;;6106863;23;20009;-89
2021/04/17 02:05:56;;;;;;;1.95;1.33;;;7.40;72.10;;;;;;6106998;23;20596;-90
2021/04/17 02:08:21;;;;;;;1.35;0.93;;;7.30;72.40;;;;;;6131759;23;20009;-89
2021/04/17 02:10:50;;;;;;;3.58;1.10;;;7.30;72.50;;;;;;6106604;23;20032;-89
2021/04/17 02:13:16;;;;;;;4.78;1.77;;;7.30;72.20;;;;;;6132011;23;20093;-89
2021/04/17 02:15:43;;;;;;;3.08;1.17;;;7.30;72.70;;;;;;6106943;23;20333;-89
2021/04/17 02:18:27;;;;;;;1.92;1.05;;;7.30;72.80;;;;;;6132000;23;20005;-88
2021/04/17 02:21:00;;;;;;;1.67;1.15;;;7.30;72.60;;;;;;6131660;23;20401;-88
2021/04/17 02:23:26;;;;;;;3.75;1.25;;;7.30;73.10;;;;;;6106257;23;20101;-88
2021/04/17 02:25:52;;;;;;;3.55;1.13;;;7.30;73.70;;;;;;6105987;23;20014;-88
2021/04/17 02:28:18;;;;;;;1.85;1.20;;;7.30;73.50;;;;;;6106517;23;20074;-87
2021/04/17 02:30:43;;;;;;;3.17;1.35;;;7.20;73.40;;;;;;6106487;23;20010;-89
2021/04/17 02:33:09;;;;;;;2.00;1.30;;;7.20;73.40;;;;;;6106167;23;20009;-88
2021/04/17 02:35:34;;;;;;;2.10;1.30;;;7.20;73.60;;;;;;6106807;23;20373;-88
2021/04/17 02:38:00;;;;;;;2.72;1.20;;;7.10;73.70;;;;;;6131315;23;20060;-88
2021/04/17 02:40:26;;;;;;;2.90;1.35;;;7.10;73.70;;;;;;6106316;23;20081;-88
2021/04/17 02:42:52;;;;;;;8.45;1.17;;;7.00;74.50;;;;;;6106264;23;20045;-89
2021/04/17 02:45:17;;;;;;;4.20;1.45;;;7.00;74.70;;;;;;6106308;23;20242;-88
2021/04/17 02:47:43;;;;;;;7.95;1.55;;;6.90;75.20;;;;;;6106518;23;20033;-89
2021/04/17 02:50:09;;;;;;;1.58;1.00;;;6.90;75.30;;;;;;6106719;23;20017;-89
2021/04/17 02:52:34;;;;;;;2.67;1.00;;;6.90;75.60;;;;;;6105616;23;20250;-87
2021/04/17 02:55:00;;;;;;;1.90;1.23;;;6.80;76.10;;;;;;6131532;23;20057;-89
2021/04/17 02:57:25;;;;;;;4.10;1.40;;;6.80;76.40;;;;;;6105792;23;20057;-87
2021/04/17 02:59:51;;;;;;;3.08;1.42;;;6.80;76.60;;;;;;6105749;23;20006;-88
2021/04/17 03:02:16;;;;;;;2.45;1.08;;;6.80;77.20;;;;;;6106744;23;20006;-88
2021/04/17 03:04:42;;;;;;;2.08;1.45;;;6.70;77.80;;;;;;6130836;23;20006;-88
2021/04/17 03:07:08;;;;;;;4.38;1.80;;;6.70;79.00;;;;;;6106527;23;20009;-88
2021/04/17 03:09:33;;;;;;;1.30;0.80;;;6.60;79.80;;;;;;6105873;23;20388;-88
2021/04/17 03:11:59;;;;;;;2.55;1.23;;;6.60;80.30;;;;;;6105897;23;20017;-89
2021/04/17 03:14:24;;;;;;;1.20;0.90;;;6.60;81.60;;;;;;6106881;23;20016;-89
2021/04/17 03:16:50;;;;;;;1.58;1.02;;;6.60;81.60;;;;;;6106170;23;20088;-88
2021/04/17 03:19:16;;;;;;;5.07;1.40;;;6.50;82.10;;;;;;6106338;23;20009;-89
2021/04/17 03:21:42;;;;;;;3.38;1.13;;;6.50;82.40;;;;;;6106949;23;20009;-89
2021/04/17 03:24:07;;;;;;;4.07;1.67;;;6.50;82.70;;;;;;6106574;23;20322;-89
2021/04/17 03:26:33;;;;;;;2.05;1.33;;;6.50;83.40;;;;;;6106900;23;20069;-89
2021/04/17 03:28:58;;;;;;;5.50;1.40;;;6.50;84.00;;;;;;6106357;23;20013;-89
2021/04/17 03:31:24;;;;;;;1.90;1.08;;;6.50;84.60;;;;;;6106168;23;20037;-88
2021/04/17 03:33:49;;;;;;;1.38;1.00;;;6.50;85.20;;;;;;6106859;23;20037;-89
2021/04/17 03:36:15;;;;;;;3.58;1.10;;;6.40;85.70;;;;;;6106635;23;20076;-89
2021/04/17 03:38:44;;;;;;;5.15;1.17;;;6.40;85.70;;;;;;6106942;23;20002;-89
2021/04/17 03:41:09;;;;;;;2.47;1.00;;;6.40;86.60;;;;;;6108281;23;20002;-90
2021/04/17 03:43:35;;;;;;;4.90;1.10;;;6.40;86.80;;;;;;6107231;23;20085;-90
2021/04/17 03:46:02;;;;;;;3.83;1.70;;;6.40;86.90;;;;;;6107434;23;20017;-91
2021/04/17 03:48:29;;;;;;;1.08;0.85;;;6.40;87.20;;;;;;6131986;23;20006;-91
2021/04/17 03:50:55;;;;;;;1.70;1.13;;;6.40;86.70;;;;;;6107439;23;20208;-91
2021/04/17 03:53:20;;;;;;;2.47;1.30;;;6.40;87.20;;;;;;6132429;23;20006;-88
2021/04/17 03:55:46;;;;;;;2.35;1.35;;;6.40;87.50;;;;;;6107647;23;20006;-91
2021/04/17 03:58:11;;;;;;;1.73;1.25;;;6.30;88.10;;;;;;6108223;23;20013;-91
2021/04/17 04:00:37;;;;;;;2.38;1.02;;;6.30;88.30;;;;;;6107447;23;20117;-91
2021/04/17 04:03:03;;;;;;;3.78;1.15;;;6.30;88.90;;;;;;6107623;23;20006;-90
2021/04/17 04:05:28;;;;;;;1.85;1.35;;;6.30;88.90;;;;;;6107495;23;20002;-91
2021/04/17 04:08:02;;;;;;;3.40;1.65;;;6.20;89.00;;;;;;6107433;23;20033;-92
2021/04/17 04:10:31;;;;;;;2.00;1.15;;;6.20;90.00;;;;;;6107443;23;20040;-91
2021/04/17 04:12:59;;;;;;;1.88;1.00;;;6.20;89.80;;;;;;6107361;23;20260;-92
2021/04/17 04:15:29;;;;;;;4.20;1.20;;;6.20;89.70;;;;;;6108094;23;20101;-89
2021/04/17 04:17:54;;;;;;;2.25;1.23;;;6.10;89.70;;;;;;6107002;23;20008;-91
2021/04/17 04:20:20;;;;;;;3.70;1.00;;;6.10;89.70;;;;;;6107518;23;20025;-91
2021/04/17 04:22:46;;;;;;;1.45;1.35;;;6.10;89.80;;;;;;6108028;23;20242;-92
2021/04/17 04:25:12;;;;;;;4.25;1.02;;;6.10;89.70;;;;;;6107462;23;20292;-90
2021/04/17 04:27:40;;;;;;;1.30;1.20;;;6.10;89.80;;;;;;6107224;23;20077;-91
2021/04/17 04:30:08;;;;;;;1.42;1.10;;;6.00;90.20;;;;;;6106754;23;20017;-91
2021/04/17 04:32:35;;;;;;;63.00;26.52;;;5.90;90.10;;;;;;6107214;23;20088;-92
2021/04/17 04:35:00;;;;;;;48.95;19.88;;;5.80;90.30;;;;;;6107551;23;20002;-91
2021/04/17 04:37:26;;;;;;;66.25;31.10;;;5.90;90.40;;;;;;6106948;23;20006;-90
2021/04/17 04:39:52;;;;;;;12.20;6.40;;;5.90;90.60;;;;;;6107298;23;20049;-90
2021/04/17 04:42:21;;;;;;;20.55;10.27;;;5.90;90.60;;;;;;6132514;23;20243;-90
2021/04/17 04:44:48;;;;;;;3.22;2.50;;;5.90;90.40;;;;;;6105538;23;20045;-90
2021/04/17 04:47:13;;;;;;;1.73;1.40;;;5.80;90.50;;;;;;6107083;23;20001;-91
2021/04/17 04:49:41;;;;;;;1.95;1.60;;;5.80;90.50;;;;;;6107276;23;20026;-91
2021/04/17 04:52:06;;;;;;;3.42;1.63;;;5.80;90.50;;;;;;6107501;23;20009;-91
2021/04/17 04:54:32;;;;;;;2.30;1.17;;;5.80;90.60;;;;;;6106917;23;20238;-91
2021/04/17 04:56:57;;;;;;;2.38;1.33;;;5.90;90.40;;;;;;6107484;23;20002;-91
2021/04/17 04:59:23;;;;;;;4.10;1.73;;;5.90;90.40;;;;;;6107160;23;20002;-91
2021/04/17 05:01:48;;;;;;;2.35;1.75;;;5.90;90.40;;;;;;6107464;23;20326;-90
2021/04/17 05:04:14;;;;;;;2.17;1.25;;;5.90;90.60;;;;;;6107203;23;20005;-91
2021/04/17 05:06:41;;;;;;;2.85;1.55;;;5.90;90.30;;;;;;6108373;23;20006;-90
2021/04/17 05:09:08;;;;;;;2.25;1.35;;;5.90;90.50;;;;;;6108556;23;20002;-90
2021/04/17 05:11:34;;;;;;;1.88;1.50;;;5.90;90.30;;;;;;6107469;23;20006;-90
2021/04/17 05:14:00;;;;;;;2.47;1.13;;;5.90;90.40;;;;;;6107279;23;20010;-91
2021/04/17 05:16:25;;;;;;;2.03;1.48;;;5.90;90.30;;;;;;6107445;23;20006;-91
2021/04/17 05:18:51;;;;;;;2.25;1.85;;;5.90;90.30;;;;;;6107228;23;20010;-91
2021/04/17 05:21:17;;;;;;;4.70;2.08;;;6.00;90.30;;;;;;6107313;23;20036;-90
2021/04/17 05:23:42;;;;;;;6.40;1.90;;;6.00;90.10;;;;;;6132715;23;20010;-90
2021/04/17 05:26:08;;;;;;;3.95;1.77;;;5.90;90.20;;;;;;6107235;23;20002;-90
2021/04/17 05:28:33;;;;;;;4.95;2.88;;;5.90;90.10;;;;;;6107259;23;20262;-91
2021/04/17 05:30:59;;;;;;;6.82;4.60;;;5.90;90.10;;;;;;6132272;23;20006;-90
2021/04/17 05:33:24;;;;;;;2.63;1.92;;;6.00;90.20;;;;;;6108961;23;20040;-91
2021/04/17 05:35:51;;;;;;;2.70;1.63;;;6.00;90.20;;;;;;6109196;23;20363;-91
2021/04/17 05:38:16;;;;;;;1.98;1.75;;;6.10;90.20;;;;;;6109404;23;20520;-90
2021/04/17 05:40:42;;;;;;;2.88;1.75;;;6.10;90.00;;;;;;6109661;23;20006;-90
2021/04/17 05:43:12;;;;;;;4.70;2.22;;;6.10;90.10;;;;;;6134135;23;20326;-90
2021/04/17 05:45:38;;;;;;;25.80;16.70;;;6.20;90.00;;;;;;6109387;23;20096;-90
2021/04/17 05:48:04;;;;;;;3.95;3.30;;;6.30;90.00;;;;;;6108967;23;20014;-91
2021/04/17 05:50:29;;;;;;;5.65;2.47;;;6.30;89.60;;;;;;6109266;23;20006;-90
2021/04/17 05:52:55;;;;;;;4.25;2.22;;;6.30;90.10;;;;;;6108865;23;20002;-90
2021/04/17 05:55:21;;;;;;;6.45;1.50;;;6.30;89.70;;;;;;6108815;23;20032;-90
2021/04/17 05:57:46;;;;;;;6.00;1.90;;;6.30;89.90;;;;;;6109055;23;20028;-90
2021/04/17 06:00:12;;;;;;;3.60;1.50;;;6.30;89.80;;;;;;6108763;23;20033;-90
2021/04/17 06:02:38;;;;;;;3.50;1.58;;;6.30;89.30;;;;;;6108971;23;20005;-90
2021/04/17 06:05:04;;;;;;;2.17;1.52;;;6.30;90.00;;;;;;6108852;23;20002;-89
2021/04/17 06:07:30;;;;;;;3.10;1.42;;;6.40;89.90;;;;;;6108917;23;20006;-91
2021/04/17 06:09:56;;;;;;;3.25;1.70;;;6.40;89.60;;;;;;6108568;23;20006;-90
2021/04/17 06:12:21;;;;;;;2.10;1.30;;;6.40;89.20;;;;;;6108861;23;20009;-91
2021/04/17 06:14:46;;;;;;;2.70;1.83;;;6.40;89.30;;;;;;6109854;23;20350;-91
2021/04/17 06:17:12;;;;;;;2.85;1.65;;;6.40;89.40;;;;;;6134950;23;20005;-91
2021/04/17 06:19:37;;;;;;;4.32;1.60;;;6.50;89.60;;;;;;6133816;23;20002;-90
2021/04/17 06:22:04;;;;;;;2.35;1.88;;;6.50;89.60;;;;;;6109249;23;20006;-91
2021/04/17 06:24:29;;;;;;;5.20;1.70;;;6.60;89.10;;;;;;6108595;23;20080;-90
2021/04/17 06:26:55;;;;;;;1.60;1.48;;;6.60;88.80;;;;;;6108458;23;20082;-92
2021/04/17 06:29:20;;;;;;;2.83;2.08;;;6.70;89.80;;;;;;6108962;23;20009;-91
2021/04/17 06:31:46;;;;;;;3.42;1.67;;;6.70;89.30;;;;;;6108774;23;20013;-91
2021/04/17 06:34:12;;;;;;;3.15;1.80;;;6.70;89.10;;;;;;6108730;23;20010;-92
2021/04/17 06:36:39;;;;;;;2.00;1.05;;;6.80;89.60;;;;;;6108489;23;20069;-91
2021/04/17 06:39:07;;;;;;;1.67;1.40;;;6.80;90.00;;;;;;6108276;23;20049;-90
2021/04/17 06:41:35;;;;;;;2.78;1.50;;;6.80;89.70;;;;;;6108930;23;20014;-89
2021/04/17 06:44:03;;;;;;;1.50;1.40;;;6.90;88.90;;;;;;6108491;23;20006;-91
2021/04/17 06:46:31;;;;;;;3.15;1.40;;;6.90;89.40;;;;;;6108593;23;20006;-93
2021/04/17 06:48:59;;;;;;;2.47;1.75;;;6.90;89.40;;;;;;6133717;23;20006;-89
2021/04/17 06:51:25;;;;;;;3.88;2.08;;;6.90;89.20;;;;;;6108234;23;20068;-90
2021/04/17 06:53:52;;;;;;;3.47;1.65;;;7.00;88.90;;;;;;6133860;23;20032;-90
2021/04/17 06:56:18;;;;;;;2.42;1.55;;;7.00;87.90;;;;;;6108836;23;20089;-91
2021/04/17 06:58:45;;;;;;;3.22;1.73;;;7.00;88.10;;;;;;6108361;23;20013;-90
2021/04/17 07:01:14;;;;;;;3.85;1.90;;;6.90;89.00;;;;;;6108401;23;20002;-90
2021/04/17 07:03:39;;;;;;;3.42;2.15;;;7.00;89.00;;;;;;6133669;23;20005;-91
2021/04/17 07:06:07;;;;;;;5.07;1.60;;;7.00;88.50;;;;;;6108992;23;20008;-90
2021/04/17 07:08:33;;;;;;;2.15;1.60;;;7.00;88.10;;;;;;6133623;23;20016;-91
2021/04/17 07:10:59;;;;;;;6.70;1.95;;;7.00;88.80;;;;;;6108843;23;20002;-92
2021/04/17 07:13:26;;;;;;;3.50;2.17;;;7.10;88.20;;;;;;6108102;23;20031;-91
2021/04/17 07:15:52;;;;;;;3.13;2.13;;;7.20;88.20;;;;;;6108737;23;20006;-90
2021/04/17 07:18:29;;;;;;;2.95;1.65;;;7.30;89.00;;;;;;6108298;23;19998;-91
2021/04/17 07:20:57;;;;;;;6.05;1.60;;;7.40;87.90;;;;;;6108329;23;20009;-91
2021/04/17 07:23:31;;;;;;;3.25;1.90;;;7.50;86.50;;;;;;6108845;23;20016;-91
2021/04/17 07:26:09;;;;;;;4.97;2.08;;;7.60;86.50;;;;;;6132963;23;20013;-91
2021/04/17 07:28:57;;;;;;;4.28;1.90;;;7.60;85.90;;;;;;6108427;23;20025;-91
2021/04/17 07:31:25;;;;;;;3.53;2.08;;;7.60;86.80;;;;;;6133841;23;20089;-91
2021/04/17 07:33:51;;;;;;;2.72;1.60;;;7.60;86.40;;;;;;6108087;23;20037;-91
2021/04/17 07:36:17;;;;;;;3.05;1.85;;;7.70;86.10;;;;;;6108263;23;20212;-92
2021/04/17 07:38:43;;;;;;;2.67;2.05;;;7.80;85.40;;;;;;6107765;23;20038;-92
2021/04/17 07:41:19;;;;;;;3.75;1.90;;;7.80;84.90;;;;;;6107887;23;20040;-91
2021/04/17 07:43:52;;;;;;;1.88;1.50;;;7.90;86.30;;;;;;6107778;23;20250;-92
2021/04/17 07:46:27;;;;;;;3.88;2.10;;;8.00;85.40;;;;;;6107970;23;20009;-91
2021/04/17 07:49:10;;;;;;;3.40;1.52;;;8.10;84.50;;;;;;6108271;23;20287;-92
2021/04/17 07:51:56;;;;;;;;;;;8.10;84.90;;;;;;6107783;23;20041;-91
2021/04/17 07:54:22;;;;;;;3.60;1.52;;;8.20;84.20;;;;;;6107822;23;20090;-91
2021/04/17 07:56:48;;;;;;;3.28;1.58;;;8.20;83.40;;;;;;6107223;23;20009;-92
2021/04/17 07:59:13;;;;;;;4.70;2.50;;;8.20;83.30;;;;;;6108057;23;20002;-91
2021/04/17 08:01:42;;;;;;;5.10;2.45;;;8.30;83.40;;;;;;6107923;23;20077;-91
2021/04/17 08:04:08;;;;;;;4.68;1.67;;;8.40;84.00;;;;;;6107263;23;20013;-91
2021/04/17 08:06:35;;;;;;;6.32;2.00;;;8.50;82.70;;;;;;6107501;23;20013;-91
2021/04/17 08:09:02;;;;;;;2.47;2.05;;;8.60;82.60;;;;;;6107181;23;20006;-91
2021/04/17 08:11:30;;;;;;;6.03;2.15;;;8.70;82.40;;;;;;6107133;23;20318;-91
2021/04/17 08:13:57;;;;;;;5.50;1.75;;;8.80;83.10;;;;;;6107302;23;20014;-91
2021/04/17 08:16:23;;;;;;;3.85;2.42;;;8.80;82.20;;;;;;6107590;23;20010;-91
2021/04/17 08:18:48;;;;;;;2.90;1.67;;;8.90;82.20;;;;;;6106951;23;20125;-91
2021/04/17 08:21:17;;;;;;;3.85;1.98;;;9.00;81.70;;;;;;6107029;23;20073;-91
2021/04/17 08:23:45;;;;;;;2.65;1.88;;;9.00;81.10;;;;;;6132025;23;20009;-91
2021/04/17 08:26:11;;;;;;;3.25;1.60;;;9.20;79.90;;;;;;6131743;23;20319;-90
2021/04/17 08:28:48;;;;;;;4.15;1.70;;;9.30;79.60;;;;;;6106415;23;20084;-90
2021/04/17 08:31:38;;;;;;;5.03;1.65;;;9.40;80.00;;;;;;6131736;23;20010;-90
2021/04/17 08:34:38;;;;;;;3.40;1.98;;;9.50;78.10;;;;;;6107253;23;20013;-96
2021/04/17 08:37:30;;;;;;;5.97;1.20;;;9.70;79.40;;;;;;6107690;23;20296;-95
2021/04/17 08:53:30;;;;;;;3.67;1.55;;;9.70;78.00;;;;;;6047565;23;20017;-92
2021/04/17 08:56:01;;;;;;;3.42;1.77;;;9.60;78.30;;;;;;6108992;23;20299;-92
2021/04/17 08:58:26;;;;;;;6.65;1.73;;;9.40;79.50;;;;;;6107839;23;20009;-91
2021/04/17 09:00:55;;;;;;;4.95;1.80;;;9.30;79.70;;;;;;6108157;23;20009;-93
2021/04/17 09:03:45;;;;;;;3.88;1.58;;;9.40;80.00;;;;;;6108236;23;20006;-92
2021/04/17 09:06:23;;;;;;;2.25;1.70;;;9.40;80.00;;;;;;6107923;23;20085;-93
2021/04/17 09:12:10;;;;;;;2.35;1.70;;;9.50;79.80;;;;;;6132453;23;20001;-91
2021/04/17 09:14:36;;;;;;;3.05;1.42;;;9.60;79.30;;;;;;6106282;23;20005;-92
2021/04/17 09:17:07;;;;;;;5.35;1.92;;;9.60;79.60;;;;;;6132004;23;20027;-90
2021/04/17 09:19:44;;;;;;;2.63;1.70;;;9.60;79.30;;;;;;6106358;23;20010;-91
2021/04/17 09:22:24;;;;;;;2.42;1.80;;;9.60;80.00;;;;;;6132378;23;19997;-93
2021/04/17 09:25:08;;;;;;;3.17;1.88;;;9.60;78.40;;;;;;6106731;23;20257;-90
2021/04/17 09:27:42;;;;;;;7.75;2.10;;;9.40;78.40;;;;;;6105864;23;20089;-89
2021/04/17 09:30:14;;;;;;;4.47;1.88;;;9.30;79.00;;;;;;6105728;23;20013;-88
2021/04/17 09:32:44;;;;;;;2.40;1.58;;;9.20;79.80;;;;;;6106729;23;20029;-94
2021/04/17 09:35:21;;;;;;;3.17;1.85;;;9.20;80.10;;;;;;6107238;23;20319;-89
2021/04/17 09:38:07;;;;;;;1.63;1.30;;;9.30;80.30;;;;;;6107681;23;20002;-93
2021/04/17 09:40:54;;;;;;;6.38;2.30;;;9.40;79.70;;;;;;6109921;23;20061;-95
2021/04/17 09:43:31;;;;;;;2.95;2.05;;;9.50;79.60;;;;;;6107960;23;20006;-93
2021/04/17 09:46:15;;;;;;;2.75;1.70;;;9.50;78.00;;;;;;6107375;23;20092;-92
2021/04/17 09:48:51;;;;;;;6.05;2.60;;;9.40;78.30;;;;;;6107412;23;20224;-93
2021/04/17 09:51:21;;;;;;;1.77;1.58;;;9.40;77.50;;;;;;6107748;23;20065;-92
2021/04/17 09:53:50;;;;;;;3.67;1.70;;;9.40;78.10;;;;;;6107510;23;20036;-93
2021/04/17 09:56:50;;;;;;;6.43;1.98;;;9.60;76.50;;;;;;6108259;23;20006;-95
2021/04/17 09:59:16;;;;;;;4.43;1.75;;;9.70;77.00;;;;;;6082315;23;20009;-93
2021/04/17 10:02:00;;;;;;;5.40;1.92;;;9.70;75.70;;;;;;6108213;23;20001;-93
2021/04/17 10:04:45;;;;;;;3.40;1.50;;;9.70;76.50;;;;;;6107389;23;20258;-93
2021/04/17 10:07:56;;;;;;;4.15;1.67;;;9.70;76.40;;;;;;6107520;23;20006;-95
2021/04/17 10:10:25;;;;;;;7.70;1.80;;;9.70;76.70;;;;;;6107320;23;20279;-92
2021/04/17 10:13:08;;;;;;;4.18;1.83;;;9.80;77.30;;;;;;6106629;23;20005;-92
2021/04/17 10:16:21;;;;;;;4.40;1.65;;;9.90;77.30;;;;;;6107865;23;20085;-96
2021/04/17 10:18:47;;;;;;;3.67;2.13;;;9.90;77.20;;;;;;6107247;23;20002;-92
2021/04/17 10:21:25;;;;;;;5.03;1.60;;;10.00;76.20;;;;;;6109224;23;20006;-94
2021/04/17 10:24:16;;;;;;;3.00;1.58;;;10.10;75.50;;;;;;6108944;23;20314;-91
2021/04/17 10:26:57;;;;;;;2.15;1.80;;;10.20;75.60;;;;;;6108650;23;20016;-93
2021/04/17 10:29:38;;;;;;;2.92;1.70;;;10.40;74.70;;;;;;6109175;23;20038;-90
2021/04/17 10:32:19;;;;;;;4.03;2.00;;;10.40;74.90;;;;;;6108454;23;20077;-91
2021/04/17 10:34:53;;;;;;;4.55;1.92;;;10.30;74.50;;;;;;6108845;23;20017;-89
2021/04/17 10:37:28;;;;;;;4.03;2.35;;;10.20;75.10;;;;;;6109165;23;20150;-93
2021/04/17 10:40:09;;;;;;;2.63;1.52;;;10.10;75.20;;;;;;6109146;23;20073;-92
2021/04/17 10:43:05;;;;;;;1.95;1.48;;;10.00;75.10;;;;;;6109393;23;20085;-95
2021/04/17 10:45:42;;;;;;;8.27;2.10;;;9.90;76.00;;;;;;6109025;23;20026;-93
2021/04/17 10:48:53;;;;;;;;;;;;;;;;;;;;;
2021/04/17 10:51:25;;;;;;;4.43;2.45;;;9.90;76.90;;;;;;6133759;23;20025;-94
2021/04/17 10:53:52;;;;;;;5.07;1.52;;;9.90;76.30;;;;;;6108529;23;20006;-92
2021/04/17 10:56:28;;;;;;;2.78;1.58;;;9.90;76.00;;;;;;6105342;23;20006;-92
2021/04/17 10:59:19;;;;;;;2.95;1.50;;;9.90;76.30;;;;;;6109206;23;20279;-94
2021/04/17 12:19:40;;;;;;;3.10;2.20;;;11.40;68.70;;;;;;5967102;24;20008;-94
2021/04/17 12:22:05;;;;;;;2.97;1.80;;;11.40;68.00;;;;;;6008477;23;20008;-92
2021/04/17 12:45:18;;;;;;;6.07;2.20;;;11.90;69.80;;;;;;5945535;23;20010;-94
2021/04/17 12:47:46;;;;;;;3.55;2.25;;;12.00;68.40;;;;;;5909703;24;20012;-87
2021/04/17 12:50:41;;;;;;;5.80;2.20;;;12.10;69.30;;;;;;5959166;24;20012;-92
2021/04/17 12:57:40;;;;;;;;;;;;;;;;;;;;;
2021/04/17 13:20:26;;;;;;;4.00;2.38;;;12.60;66.50;;;;;;5987629;24;20101;-93
2021/04/17 13:22:54;;;;;;;2.03;1.60;;;12.60;66.00;;;;;;5963219;24;20027;-90
2021/04/17 13:25:26;;;;;;;4.82;2.45;;;12.70;65.10;;;;;;6038729;23;20108;-93
2021/04/17 13:49:44;;;;;;;8.00;2.05;;;12.70;65.10;;;;;;5959707;24;20080;-93
2021/04/17 13:52:15;;;;;;;5.95;1.83;;;12.80;65.70;;;;;;5936168;24;20076;-92
2021/04/17 13:54:56;;;;;;;;;;;;;;;;;;;;;
2021/04/17 14:00:25;;;;;;;;;;;;;;;;;;;;;
2021/04/17 14:03:33;;;;;;;6.47;2.55;;;12.70;65.20;;;;;;6134185;23;20036;-92
2021/04/17 14:12:43;;;;;;;4.35;1.90;;;12.80;64.80;;;;;;6141191;23;20013;-92
2021/04/17 14:15:40;;;;;;;6.90;2.70;;;12.80;65.30;;;;;;6109583;23;20042;-92
2021/04/17 14:18:53;;;;;;;3.38;2.47;;;12.80;65.50;;;;;;6098003;23;20002;-90
2021/04/17 14:34:38;;;;;;;6.05;2.30;;;13.10;64.20;;;;;;5988996;24;20054;-92
2021/04/17 14:41:41;;;;;;;4.82;2.60;;;13.40;64.40;;;;;;6134103;23;20008;-92
2021/04/17 14:48:59;;;;;;;;;;;;;;;;;;;;;
2021/04/17 14:52:06;;;;;;;5.38;2.35;;;13.60;65.70;;;;;;6062476;23;20081;-94
2021/04/17 15:22:33;;;;;;;6.80;2.70;;;12.70;68.20;;;;;;5933223;24;20016;-92
2021/04/17 16:20:14;;;;;;;5.65;3.25;;;12.10;72.10;;;;;;5767381;24;20011;-92
2021/04/17 16:22:46;;;;;;;5.75;3.28;;;12.00;73.10;;;;;;5836344;24;20006;-92
2021/04/17 16:25:28;;;;;;;7.57;3.67;;;12.00;74.10;;;;;;5904215;24;20013;-90
2021/04/17 16:28:06;;;;;;;;;;;;;;;;;;;;;
2021/04/17 16:31:30;;;;;;;5.60;3.33;;;11.90;76.70;;;;;;6102891;23;20033;-91
2021/04/17 16:34:32;;;;;;;6.65;4.40;;;11.90;76.70;;;;;;6106873;23;20025;-92
2021/04/17 16:45:18;;;;;;;6.22;3.83;;;11.60;78.40;;;;;;6106702;23;20006;-92
2021/04/17 21:34:26;;;;;;;;;;;;;;;;;;;;;
2021/04/17 21:37:35;;;;;;;12.13;8.40;;;9.50;94.10;;;;;;5987474;23;20397;-95
2021/04/17 21:51:49;;;;;;;13.20;8.75;;;9.40;94.10;;;;;;5987484;24;20007;-94
2021/04/17 22:04:35;;;;;;;14.02;8.55;;;9.30;94.30;;;;;;5987159;24;20072;-93
2021/04/17 22:07:16;;;;;;;11.55;7.97;;;9.30;94.20;;;;;;5986929;24;20008;-93
2021/04/17 22:09:47;;;;;;;13.05;7.85;;;9.30;94.10;;;;;;5991339;23;20035;-95
2021/04/17 22:13:02;;;;;;;11.82;7.68;;;9.30;94.10;;;;;;6108175;23;20145;-94
2021/04/17 22:15:57;;;;;;;11.23;8.68;;;9.30;94.10;;;;;;6105018;23;20029;-94
2021/04/17 22:18:48;;;;;;;12.65;7.43;;;9.30;94.00;;;;;;6109461;23;20001;-93
2021/04/17 22:21:43;;;;;;;9.52;7.90;;;9.30;94.00;;;;;;6112122;23;20036;-94
2021/04/17 22:31:39;;;;;;;14.27;7.72;;;9.30;94.00;;;;;;5989009;24;20253;-94
2021/04/17 22:34:56;;;;;;;10.07;7.45;;;9.30;94.10;;;;;;5960472;24;20035;-94
2021/04/17 22:38:12;;;;;;;10.57;7.43;;;9.30;94.10;;;;;;5988676;23;20031;-95
2021/04/17 22:41:00;;;;;;;10.85;7.05;;;9.30;94.00;;;;;;5919842;23;20014;-94
2021/04/17 22:47:57;;;;;;;13.43;7.97;;;9.20;94.00;;;;;;6074054;23;20014;-94
2021/04/17 22:54:19;;;;;;;14.10;7.57;;;9.10;94.10;;;;;;6073896;23;20045;-95
2021/04/17 22:57:42;;;;;;;;;;;;;;;;;;;;;
2021/04/17 23:00:47;;;;;;;9.02;5.80;;;9.10;94.20;;;;;;6073719;23;20019;-93
2021/04/17 23:04:22;;;;;;;;;;;;;;;;;;;;;
2021/04/17 23:07:27;;;;;;;11.98;8.88;;;9.00;94.20;;;;;;5979344;23;20035;-93
2021/04/17 23:10:27;;;;;;;11.77;8.25;;;9.00;94.30;;;;;;6105025;23;20043;-93
2021/04/17 23:13:11;;;;;;;14.45;8.65;;;9.00;94.20;;;;;;6108937;23;20089;-94
2021/04/17 23:15:40;;;;;;;13.45;8.02;;;9.00;94.20;;;;;;6109419;23;20006;-93
2021/04/17 23:18:19;;;;;;;10.23;8.13;;;8.90;94.30;;;;;;6108741;23;20002;-93
2021/04/17 23:20:47;;;;;;;16.92;9.20;;;8.90;94.20;;;;;;6108749;23;20013;-92
2021/04/17 23:23:13;;;;;;;15.10;8.80;;;8.80;94.40;;;;;;6108664;23;20018;-92
2021/04/17 23:25:41;;;;;;;14.60;9.95;;;8.80;94.40;;;;;;6108657;23;20307;-93
2021/04/17 23:28:20;;;;;;;16.55;9.00;;;8.80;94.50;;;;;;6108252;23;20013;-92
2021/04/17 23:34:25;;;;;;;20.48;9.32;;;8.90;94.60;;;;;;6133840;23;20017;-94
2021/04/17 23:37:25;;;;;;;13.43;8.85;;;8.80;94.70;;;;;;6108009;23;20330;-92
2021/04/17 23:40:05;;;;;;;16.58;9.20;;;8.80;94.70;;;;;;6104604;23;20291;-93
2021/04/17 23:42:31;;;;;;;17.40;10.20;;;8.80;94.70;;;;;;6108621;23;20002;-92
2021/04/17 23:44:57;;;;;;;14.38;9.18;;;8.80;94.70;;;;;;6108426;23;20002;-93
2021/04/17 23:47:28;;;;;;;14.02;9.60;;;8.80;94.60;;;;;;6109692;23;20037;-94